HEAX/ALY METAR and TAF weather

Enter ICAO airport designator
Station Type Date Time Source
HEAX METAR 2020/07/04 09:00 UTC NOAA

HEAX 040900Z 31007KT CAVOK 30/21 Q1009 NOSIG


Station Type Date Time Source
HEAX Decoded METAR 2020/07/04 09:00 UTC NOAA

Alexandria / Nouzha, Egypt (HEAX) 31-12N 029-57E 7M
Jul 04, 2020 - 05:00 AM EDT / 2020.07.04 0900 UTC
Wind: from the NW (310 degrees) at 8 MPH (7 KT):0
Visibility: greater than 7 mile(s):0
Temperature: 86 F (30 C)
Dew Point: 69 F (21 C)
Relative Humidity: 58%
Pressure (altimeter): 29.80 in. Hg (1009 hPa)
ob: HEAX 040900Z 31007KT CAVOK 30/21 Q1009 NOSIG
cycle: 9

Station Type Date Time Source
HEAX TAF 2020/07/04 06:33 UTC NOAA

TAF TAF HEAX 040500Z 0406/0512 32008KT 9999 FEW020
TEMPO 0406/0408 VRB03KT 4000BR NSC

Example: see airport list